createdAt,value
2023-04-26T00:01:09.888Z,13.42
2023-04-26T00:03:42.220Z,13.40
2023-04-26T00:06:14.851Z,13.35
2023-04-26T00:08:46.512Z,13.33
2023-04-26T00:11:18.463Z,13.29
2023-04-26T00:13:50.119Z,13.28
2023-04-26T00:16:21.857Z,13.24
2023-04-26T00:18:54.904Z,13.22
2023-04-26T00:21:26.888Z,13.22
2023-04-26T00:23:58.737Z,13.21
2023-04-26T00:26:30.449Z,13.19
2023-04-26T00:29:03.459Z,13.17
2023-04-26T00:31:35.058Z,13.14
2023-04-26T00:34:06.992Z,13.12
2023-04-26T00:36:38.700Z,13.08
2023-04-26T00:39:10.568Z,13.06
2023-04-26T00:41:42.265Z,13.02
2023-04-26T00:44:13.847Z,12.98
2023-04-26T00:46:45.737Z,12.96
2023-04-26T00:49:22.125Z,12.93
2023-04-26T00:51:53.728Z,12.91
2023-04-26T00:54:25.769Z,12.89
2023-04-26T00:56:57.528Z,12.88
2023-04-26T00:59:29.157Z,12.83
2023-04-26T01:02:02.433Z,12.80
2023-04-26T01:04:34.330Z,12.75
2023-04-26T01:07:06.797Z,12.69
2023-04-26T01:09:39.448Z,12.63
2023-04-26T01:12:11.179Z,12.63
2023-04-26T01:14:43.901Z,12.59
2023-04-26T01:17:15.548Z,12.61
2023-04-26T01:19:50.432Z,12.61
2023-04-26T01:22:22.939Z,12.60
2023-04-26T01:24:54.818Z,12.58
2023-04-26T01:27:26.953Z,12.56
2023-04-26T01:29:58.562Z,12.54
2023-04-26T01:32:30.397Z,12.53
2023-04-26T01:35:02.284Z,12.51
2023-04-26T01:37:34.432Z,12.48
2023-04-26T01:40:07.165Z,12.45
2023-04-26T01:42:40.910Z,12.44
2023-04-26T01:45:13.164Z,12.44
2023-04-26T01:48:02.716Z,12.46
2023-04-26T01:50:35.969Z,12.47
2023-04-26T01:53:07.706Z,12.50
2023-04-26T01:55:39.682Z,12.51
2023-04-26T01:58:13.257Z,12.52
2023-04-26T02:00:44.889Z,12.55
2023-04-26T02:03:16.494Z,12.52
2023-04-26T02:05:48.057Z,12.52
2023-04-26T02:08:20.830Z,12.54
2023-04-26T02:10:52.625Z,12.53
2023-04-26T02:13:24.856Z,12.55
2023-04-26T02:15:56.619Z,12.51
2023-04-26T02:18:29.956Z,12.52
2023-04-26T02:21:01.666Z,12.56
2023-04-26T02:23:39.029Z,12.59
2023-04-26T02:26:11.729Z,12.62
2023-04-26T02:28:43.933Z,12.64
2023-04-26T02:31:15.495Z,12.65
2023-04-26T02:33:47.240Z,12.64
2023-04-26T02:36:18.895Z,12.66
2023-04-26T02:38:51.248Z,12.65
2023-04-26T02:41:23.522Z,12.67
2023-04-26T02:43:55.271Z,12.68
2023-04-26T02:46:27.083Z,12.68
2023-04-26T02:48:58.913Z,12.70
2023-04-26T02:51:30.486Z,12.74
2023-04-26T02:54:04.612Z,12.78
2023-04-26T02:56:36.854Z,12.76
2023-04-26T02:59:08.624Z,12.72
2023-04-26T03:01:40.472Z,12.67
2023-04-26T03:04:12.270Z,12.62
2023-04-26T03:06:44.340Z,12.58
2023-04-26T03:09:16.157Z,12.51
2023-04-26T03:11:50.226Z,12.44
2023-04-26T03:14:22.276Z,12.42
2023-04-26T03:16:54.644Z,12.38
2023-04-26T03:19:27.240Z,12.32
2023-04-26T03:21:58.919Z,12.33
2023-04-26T03:24:30.931Z,12.32
2023-04-26T03:27:02.899Z,12.29
2023-04-26T03:29:34.877Z,12.28
2023-04-26T03:32:07.452Z,12.27
2023-04-26T03:34:39.520Z,12.26
2023-04-26T03:37:11.122Z,12.23
2023-04-26T03:39:42.838Z,12.17
2023-04-26T03:42:14.631Z,12.17
2023-04-26T03:44:46.619Z,12.16
2023-04-26T03:47:18.268Z,12.12
2023-04-26T03:49:50.353Z,12.10
2023-04-26T03:52:21.963Z,12.11
2023-04-26T03:54:53.700Z,12.13
2023-04-26T03:57:25.780Z,12.11
2023-04-26T03:59:58.233Z,12.10
2023-04-26T04:02:30.306Z,12.11
2023-04-26T04:05:02.484Z,12.10
2023-04-26T04:07:34.913Z,12.13
2023-04-26T04:10:07.542Z,12.17
2023-04-26T04:12:39.699Z,12.19
2023-04-26T04:15:11.958Z,12.23
2023-04-26T04:17:46.026Z,12.26
2023-04-26T04:20:18.534Z,12.31
2023-04-26T04:22:51.295Z,12.33
2023-04-26T04:25:23.078Z,12.34
2023-04-26T04:27:55.065Z,12.40
2023-04-26T04:30:27.456Z,12.45
2023-04-26T04:33:00.476Z,12.49
2023-04-26T04:35:34.284Z,12.52
2023-04-26T04:38:08.353Z,12.56
2023-04-26T04:40:40.499Z,12.59
2023-04-26T04:43:12.444Z,12.60
2023-04-26T04:45:44.517Z,12.63
2023-04-26T04:48:18.860Z,12.67
2023-04-26T04:50:51.039Z,12.70
2023-04-26T04:53:23.770Z,12.73
2023-04-26T04:55:55.462Z,12.75
2023-04-26T04:58:28.102Z,12.78
2023-04-26T05:01:01.537Z,12.77
2023-04-26T05:03:35.283Z,12.80
2023-04-26T05:06:08.273Z,12.81
2023-04-26T05:08:40.135Z,12.78
2023-04-26T05:11:12.707Z,12.78
2023-04-26T05:13:47.618Z,12.79
2023-04-26T05:16:19.653Z,12.81
2023-04-26T05:18:51.790Z,12.81
2023-04-26T05:21:24.119Z,12.82
2023-04-26T05:23:55.879Z,12.86
2023-04-26T05:26:27.523Z,12.88
2023-04-26T05:29:19.337Z,12.95
2023-04-26T05:32:09.228Z,13.02
2023-04-26T05:34:45.522Z,13.07
2023-04-26T05:37:18.904Z,13.13
2023-04-26T05:39:51.120Z,13.21
2023-04-26T05:42:23.098Z,13.27
2023-04-26T05:44:59.626Z,13.26
2023-04-26T05:47:32.287Z,13.24
2023-04-26T05:50:04.019Z,13.24
2023-04-26T05:52:36.791Z,13.23
2023-04-26T05:55:09.122Z,13.24
2023-04-26T05:57:41.670Z,13.24
2023-04-26T06:00:15.640Z,13.21
2023-04-26T06:02:48.246Z,13.22
2023-04-26T06:05:21.793Z,13.24
2023-04-26T06:07:54.329Z,13.28
2023-04-26T06:10:26.042Z,13.29
2023-04-26T06:12:57.852Z,13.27
2023-04-26T06:15:35.528Z,13.27
2023-04-26T06:18:07.295Z,13.33
2023-04-26T06:20:39.046Z,13.34
2023-04-26T06:23:10.963Z,13.36
2023-04-26T06:25:44.249Z,13.38
2023-04-26T06:28:16.516Z,13.46
2023-04-26T06:30:48.757Z,13.52
2023-04-26T06:33:20.809Z,13.64
2023-04-26T06:35:52.529Z,13.76
2023-04-26T06:38:24.481Z,13.93
2023-04-26T06:40:56.129Z,14.05
2023-04-26T06:43:28.042Z,14.12
2023-04-26T06:46:04.240Z,14.13
2023-04-26T06:48:35.994Z,14.13
2023-04-26T06:51:08.945Z,14.08
2023-04-26T06:53:41.603Z,14.05
2023-04-26T06:56:13.236Z,13.98
2023-04-26T06:59:02.681Z,13.93
2023-04-26T07:01:35.808Z,13.90
2023-04-26T07:04:09.457Z,13.84
2023-04-26T07:06:41.216Z,13.79
2023-04-26T07:09:13.256Z,13.81
2023-04-26T07:11:47.693Z,13.86
2023-04-26T07:14:19.395Z,13.89
2023-04-26T07:16:51.403Z,13.89
2023-04-26T07:19:23.520Z,13.96
2023-04-26T07:21:55.231Z,14.01
2023-04-26T07:24:26.803Z,14.11
2023-04-26T07:26:58.666Z,14.24
2023-04-26T07:29:30.330Z,14.45
2023-04-26T07:32:02.139Z,14.71
2023-04-26T07:34:34.673Z,14.94
2023-04-26T07:37:07.278Z,15.14
2023-04-26T07:39:38.860Z,15.40
2023-04-26T07:42:10.464Z,15.62
2023-04-26T07:44:42.168Z,15.86
2023-04-26T07:47:14.623Z,16.01
2023-04-26T07:49:47.923Z,16.12
2023-04-26T07:52:19.630Z,16.29
2023-04-26T07:54:51.873Z,16.54
2023-04-26T07:57:24.054Z,16.82
2023-04-26T07:59:55.617Z,17.28
2023-04-26T08:02:36.696Z,17.60
2023-04-26T08:05:00.961Z,17.79
2023-04-26T08:07:33.329Z,17.98
2023-04-26T08:10:05.212Z,18.20
2023-04-26T08:12:37.354Z,18.37
2023-04-26T08:15:09.874Z,18.56
2023-04-26T08:17:42.089Z,18.72
2023-04-26T08:20:14.278Z,18.77
2023-04-26T08:22:46.048Z,18.69
2023-04-26T08:25:17.550Z,18.55
2023-04-26T08:27:49.315Z,18.30
2023-04-26T08:30:21.507Z,18.00
2023-04-26T08:32:53.279Z,17.70
2023-04-26T08:35:24.936Z,17.50
2023-04-26T08:37:56.908Z,17.40
2023-04-26T08:40:28.610Z,17.41
2023-04-26T08:43:01.008Z,17.51
2023-04-26T08:45:33.162Z,17.57
2023-04-26T08:48:09.554Z,17.45
2023-04-26T08:50:41.984Z,17.27
2023-04-26T08:53:19.502Z,17.12
2023-04-26T08:55:51.232Z,17.08
2023-04-26T08:58:22.776Z,16.96
2023-04-26T09:00:54.389Z,16.81
2023-04-26T09:03:27.085Z,16.68
2023-04-26T09:05:59.435Z,16.55
2023-04-26T09:08:31.194Z,16.60
2023-04-26T09:11:04.553Z,16.73
2023-04-26T09:13:36.909Z,16.85
2023-04-26T09:16:08.760Z,16.96
2023-04-26T09:18:48.907Z,17.05
2023-04-26T09:21:20.564Z,17.11
2023-04-26T09:24:06.722Z,17.08
2023-04-26T09:26:38.795Z,16.98
2023-04-26T09:29:14.206Z,16.88
2023-04-26T09:31:49.515Z,16.82
2023-04-26T09:34:20.994Z,16.78
2023-04-26T09:36:59.038Z,16.78
2023-04-26T09:39:35.874Z,16.72
2023-04-26T09:42:12.710Z,16.67
2023-04-26T09:44:44.446Z,16.66
2023-04-26T09:47:15.992Z,16.62
2023-04-26T09:49:50.546Z,16.49
2023-04-26T09:52:22.390Z,16.43
2023-04-26T09:54:55.078Z,16.37
2023-04-26T10:00:13.279Z,16.33
2023-04-26T10:02:45.226Z,16.29
2023-04-26T10:05:28.294Z,16.23
2023-04-26T10:08:00.248Z,16.29
2023-04-26T10:10:33.505Z,16.29
2023-04-26T10:13:07.506Z,16.22
2023-04-26T10:15:40.945Z,16.16
2023-04-26T10:18:13.274Z,16.11
2023-04-26T10:21:06.556Z,16.07
2023-04-26T10:23:38.798Z,16.04
2023-04-26T10:26:14.013Z,16.00
2023-04-26T10:28:55.359Z,15.93
2023-04-26T10:31:25.996Z,15.91
2023-04-26T10:34:19.883Z,15.90
2023-04-26T10:37:13.532Z,15.93
2023-04-26T10:40:06.627Z,16.05
2023-04-26T10:42:40.492Z,16.20
2023-04-26T10:45:30.531Z,16.40
2023-04-26T10:48:14.189Z,16.60
2023-04-26T10:51:11.824Z,16.86
2023-04-26T10:53:51.440Z,17.10
2023-04-26T10:56:29.412Z,17.38
2023-04-26T11:01:48.613Z,17.47
2023-04-26T11:04:20.378Z,17.29
2023-04-26T11:06:56.251Z,17.06
2023-04-26T11:09:39.876Z,16.82
2023-04-26T11:12:15.084Z,16.62
2023-04-26T11:14:47.274Z,16.49
2023-04-26T11:17:20.400Z,16.46
2023-04-26T11:19:52.369Z,16.40
2023-04-26T11:22:24.477Z,16.39
2023-04-26T11:24:56.088Z,16.44
2023-04-26T11:27:28.880Z,16.56
2023-04-26T11:30:08.403Z,16.72
2023-04-26T11:32:42.080Z,16.98
2023-04-26T11:35:14.936Z,17.22
2023-04-26T11:37:47.102Z,17.43
2023-04-26T11:40:18.902Z,17.56
2023-04-26T11:42:50.642Z,17.60
2023-04-26T11:45:22.372Z,17.53
2023-04-26T11:47:54.062Z,17.30
2023-04-26T11:50:27.000Z,17.05
2023-04-26T11:52:59.858Z,16.88
2023-04-26T11:55:35.991Z,16.74
2023-04-26T11:58:12.833Z,16.64
2023-04-26T12:01:01.998Z,16.56
2023-04-26T12:03:37.043Z,16.53
2023-04-26T12:06:09.513Z,16.51
2023-04-26T12:08:42.239Z,16.57
2023-04-26T12:11:14.115Z,16.68
2023-04-26T12:13:47.590Z,16.78
2023-04-26T12:16:26.256Z,16.86
2023-04-26T12:18:53.494Z,16.94
2023-04-26T12:21:28.184Z,17.00
2023-04-26T12:23:59.333Z,17.09
2023-04-26T12:26:46.670Z,17.15
2023-04-26T12:29:18.564Z,17.18
2023-04-26T12:31:50.292Z,17.16
2023-04-26T12:34:22.218Z,17.06
2023-04-26T12:36:54.113Z,16.97
2023-04-26T12:39:25.752Z,16.94
2023-04-26T12:41:57.372Z,16.89
2023-04-26T12:44:29.256Z,16.78
2023-04-26T12:47:00.882Z,16.73
2023-04-26T12:49:32.815Z,16.71
2023-04-26T12:52:04.939Z,16.68
2023-04-26T12:54:37.440Z,16.60
2023-04-26T12:57:10.202Z,16.49
2023-04-26T12:59:42.094Z,16.40
2023-04-26T13:02:17.108Z,16.26
2023-04-26T13:04:49.622Z,16.11
2023-04-26T13:07:22.011Z,16.02
2023-04-26T13:09:54.116Z,15.95
2023-04-26T13:12:26.004Z,15.85
2023-04-26T13:14:58.163Z,15.77
2023-04-26T13:17:30.088Z,15.71
2023-04-26T13:20:01.687Z,15.69
2023-04-26T13:22:33.561Z,15.67
2023-04-26T13:25:17.178Z,15.66
2023-04-26T13:27:49.245Z,15.67
2023-04-26T13:30:21.267Z,15.68
2023-04-26T13:32:54.160Z,15.74
2023-04-26T13:35:26.149Z,15.75
2023-04-26T13:37:57.994Z,15.76
2023-04-26T13:40:29.658Z,15.74
2023-04-26T13:43:01.507Z,15.71
2023-04-26T13:45:36.386Z,15.65
2023-04-26T13:48:08.774Z,15.60
2023-04-26T13:50:40.965Z,15.55
2023-04-26T13:53:14.187Z,15.51
2023-04-26T13:55:46.764Z,15.47
2023-04-26T13:58:18.528Z,15.46
2023-04-26T14:00:50.528Z,15.42
2023-04-26T14:03:23.371Z,15.33
2023-04-26T14:08:39.014Z,15.21
2023-04-26T14:11:12.273Z,15.17
2023-04-26T14:13:44.146Z,15.14
2023-04-26T14:16:17.265Z,15.09
2023-04-26T14:18:49.287Z,15.03
2023-04-26T14:21:21.025Z,15.02
2023-04-26T14:23:52.889Z,15.04
2023-04-26T14:26:26.405Z,15.05
2023-04-26T14:28:58.125Z,15.05
2023-04-26T14:31:30.672Z,15.02
2023-04-26T14:34:02.668Z,14.98
2023-04-26T14:36:34.788Z,14.97
2023-04-26T14:39:06.940Z,14.92
2023-04-26T14:41:39.321Z,14.88
2023-04-26T14:44:11.031Z,14.80
2023-04-26T14:46:43.227Z,14.74
2023-04-26T14:49:14.856Z,14.69
2023-04-26T14:51:47.120Z,14.69
2023-04-26T14:54:19.741Z,14.72
2023-04-26T14:56:51.932Z,14.76
2023-04-26T14:59:23.724Z,14.79
2023-04-26T15:01:56.530Z,14.75
2023-04-26T15:04:28.953Z,14.73
2023-04-26T15:07:01.122Z,14.71
2023-04-26T15:09:33.388Z,14.69
2023-04-26T15:12:16.298Z,14.74
2023-04-26T15:14:47.896Z,14.74
2023-04-26T15:17:20.085Z,14.72
2023-04-26T15:19:51.794Z,14.70
2023-04-26T15:22:23.766Z,14.72
2023-04-26T15:24:55.480Z,14.77
2023-04-26T15:27:27.364Z,14.78
2023-04-26T15:29:59.440Z,14.78
2023-04-26T15:32:32.950Z,14.76
2023-04-26T15:35:05.484Z,14.77
2023-04-26T15:37:38.723Z,14.77
2023-04-26T15:40:12.214Z,14.74
2023-04-26T15:42:44.180Z,14.70
2023-04-26T15:45:16.332Z,14.66
2023-04-26T15:47:48.248Z,14.67
2023-04-26T15:50:20.099Z,14.71
2023-04-26T15:52:51.860Z,14.74
2023-04-26T15:55:23.782Z,14.76
2023-04-26T15:57:55.656Z,14.75
2023-04-26T16:00:28.477Z,14.76
2023-04-26T16:03:00.398Z,14.75
2023-04-26T16:05:32.658Z,14.75
2023-04-26T16:08:05.801Z,14.74
2023-04-26T16:10:38.833Z,14.72
2023-04-26T16:13:11.702Z,14.68
2023-04-26T16:15:43.807Z,14.65
2023-04-26T16:18:16.645Z,14.67
2023-04-26T16:20:52.009Z,14.70
2023-04-26T16:23:23.977Z,14.70
2023-04-26T16:25:57.207Z,14.64
2023-04-26T16:28:29.206Z,14.61
2023-04-26T16:31:01.433Z,14.63
2023-04-26T16:33:33.107Z,14.60
2023-04-26T16:36:04.810Z,14.57
2023-04-26T16:38:36.649Z,14.54
2023-04-26T16:41:09.341Z,14.51
2023-04-26T16:43:41.095Z,14.51
2023-04-26T16:46:13.308Z,14.51
2023-04-26T16:48:45.181Z,14.52
2023-04-26T16:51:16.901Z,14.51
2023-04-26T16:53:48.718Z,14.46
2023-04-26T16:56:20.938Z,14.42
2023-04-26T16:58:52.658Z,14.41
2023-04-26T17:01:24.569Z,14.38
2023-04-26T17:03:57.211Z,14.32
2023-04-26T17:06:29.177Z,14.28
2023-04-26T17:09:01.111Z,14.25
2023-04-26T17:11:34.191Z,14.23
2023-04-26T17:14:06.630Z,14.21
2023-04-26T17:16:39.398Z,14.18
2023-04-26T17:19:12.138Z,14.16
2023-04-26T17:21:44.460Z,14.13
2023-04-26T17:24:16.063Z,14.11
2023-04-26T17:26:47.990Z,14.10
2023-04-26T17:29:19.696Z,14.09
2023-04-26T17:31:51.560Z,14.06
2023-04-26T17:34:23.300Z,14.05
2023-04-26T17:36:55.031Z,14.03
2023-04-26T17:39:26.819Z,14.04
2023-04-26T17:41:58.515Z,14.06
2023-04-26T17:44:30.675Z,14.08
2023-04-26T17:47:02.350Z,14.10
2023-04-26T17:49:34.120Z,14.13
2023-04-26T17:52:06.059Z,14.14
2023-04-26T17:54:38.289Z,14.16
2023-04-26T17:57:09.808Z,14.15
2023-04-26T17:59:41.632Z,14.14
2023-04-26T18:02:13.896Z,14.12
2023-04-26T18:04:47.303Z,14.09
2023-04-26T18:07:20.318Z,14.08
2023-04-26T18:09:52.558Z,14.06
2023-04-26T18:12:25.371Z,14.05
2023-04-26T18:14:57.139Z,14.03
2023-04-26T18:17:29.650Z,14.02
2023-04-26T18:20:01.554Z,13.99
2023-04-26T18:22:33.637Z,13.98
2023-04-26T18:25:06.795Z,13.99
2023-04-26T18:27:39.326Z,14.06
2023-04-26T18:30:13.222Z,14.09
2023-04-26T18:32:45.767Z,14.05
2023-04-26T18:35:18.233Z,13.98
2023-04-26T18:37:50.105Z,13.92
2023-04-26T18:40:22.090Z,13.90
2023-04-26T18:42:54.041Z,13.89
2023-04-26T18:45:25.982Z,13.89
2023-04-26T18:47:57.768Z,13.87
2023-04-26T18:50:30.381Z,13.83
2023-04-26T18:53:02.316Z,13.83
2023-04-26T18:55:34.170Z,13.83
2023-04-26T18:58:06.298Z,13.82
2023-04-26T19:00:38.422Z,13.80
2023-04-26T19:03:10.151Z,13.81
2023-04-26T19:05:43.364Z,13.80
2023-04-26T19:08:17.041Z,13.81
2023-04-26T19:10:48.815Z,13.80
2023-04-26T19:13:21.164Z,13.76
2023-04-26T19:15:53.196Z,13.77
2023-04-26T19:18:27.291Z,13.79
2023-04-26T19:20:58.974Z,13.80
2023-04-26T19:23:32.528Z,13.80
2023-04-26T19:26:06.812Z,13.82
2023-04-26T19:28:39.671Z,13.85
2023-04-26T19:31:11.398Z,13.89
2023-04-26T19:33:44.891Z,13.93
2023-04-26T19:36:16.797Z,13.97
2023-04-26T19:38:48.634Z,14.01
2023-04-26T19:41:20.524Z,14.04
2023-04-26T19:43:52.515Z,14.03
2023-04-26T19:46:24.304Z,14.05
2023-04-26T19:48:56.448Z,14.05
2023-04-26T19:51:28.447Z,14.03
2023-04-26T19:54:00.190Z,13.99
2023-04-26T19:56:32.185Z,13.96
2023-04-26T19:59:05.050Z,13.91
2023-04-26T20:01:37.631Z,13.88
2023-04-26T20:04:09.568Z,13.86
2023-04-26T20:06:41.436Z,13.85
2023-04-26T20:09:13.417Z,13.81
2023-04-26T20:11:45.068Z,13.80
2023-04-26T20:14:17.100Z,13.78
2023-04-26T20:16:48.971Z,13.74
2023-04-26T20:19:21.188Z,13.73
2023-04-26T20:21:52.806Z,13.73
2023-04-26T20:24:26.505Z,13.73
2023-04-26T20:26:58.469Z,13.70
2023-04-26T20:29:30.205Z,13.69
2023-04-26T20:32:01.976Z,13.66
2023-04-26T20:34:34.038Z,13.63
2023-04-26T20:37:06.046Z,13.63
2023-04-26T20:39:38.141Z,13.63
2023-04-26T20:42:09.833Z,13.67
2023-04-26T20:44:41.754Z,13.67
2023-04-26T20:47:13.818Z,13.68
2023-04-26T20:49:45.489Z,13.66
2023-04-26T20:52:17.866Z,13.68
2023-04-26T20:54:49.678Z,13.70
2023-04-26T20:57:21.405Z,13.70
2023-04-26T20:59:53.028Z,13.70
2023-04-26T21:02:25.222Z,13.68
2023-04-26T21:04:57.123Z,13.66
2023-04-26T21:07:29.186Z,13.64
2023-04-26T21:10:01.061Z,13.62
2023-04-26T21:12:34.341Z,13.60
2023-04-26T21:15:07.487Z,13.59
2023-04-26T21:17:40.791Z,13.64
2023-04-26T21:20:13.436Z,13.66
2023-04-26T21:22:45.375Z,13.54
2023-04-26T21:25:19.591Z,13.33
2023-04-26T21:27:51.926Z,13.16
2023-04-26T21:30:23.984Z,12.96
2023-04-26T21:32:56.724Z,12.79
2023-04-26T21:35:28.863Z,12.63
2023-04-26T21:38:00.754Z,12.54
2023-04-26T21:40:32.637Z,12.45
2023-04-26T21:43:05.599Z,12.38
2023-04-26T21:45:37.925Z,12.29
2023-04-26T21:48:09.938Z,12.21
2023-04-26T21:50:42.280Z,12.13
2023-04-26T21:53:14.228Z,12.08
2023-04-26T21:55:47.628Z,12.02
2023-04-26T21:58:20.783Z,11.95
2023-04-26T22:00:52.739Z,11.84
2023-04-26T22:03:25.325Z,11.75
2023-04-26T22:05:57.442Z,11.71
2023-04-26T22:08:29.579Z,11.66
2023-04-26T22:11:01.776Z,11.66
2023-04-26T22:13:33.747Z,11.57
2023-04-26T22:16:06.493Z,11.48
2023-04-26T22:18:38.407Z,11.39
2023-04-26T22:21:10.538Z,11.29
2023-04-26T22:23:42.375Z,11.18
2023-04-26T22:26:14.773Z,11.13
2023-04-26T22:28:47.489Z,11.12
2023-04-26T22:31:19.428Z,10.99
2023-04-26T22:33:51.661Z,10.86
2023-04-26T22:36:23.309Z,10.83
2023-04-26T22:38:55.335Z,10.83
2023-04-26T22:41:27.188Z,10.82
2023-04-26T22:43:58.792Z,10.81
2023-04-26T22:46:30.592Z,10.79
2023-04-26T22:49:02.466Z,10.73
2023-04-26T22:51:34.960Z,10.61
2023-04-26T22:54:07.904Z,10.55
2023-04-26T22:56:39.695Z,10.54
2023-04-26T22:59:12.245Z,10.52
2023-04-26T23:01:44.417Z,10.49
2023-04-26T23:04:16.129Z,10.44
2023-04-26T23:06:47.881Z,10.40
2023-04-26T23:09:19.670Z,10.34
2023-04-26T23:11:52.018Z,10.27
2023-04-26T23:14:23.731Z,10.21
2023-04-26T23:16:55.719Z,10.17
2023-04-26T23:19:28.146Z,10.10
2023-04-26T23:22:01.267Z,10.05
2023-04-26T23:24:33.232Z,9.98
2023-04-26T23:27:05.142Z,9.95
2023-04-26T23:29:36.919Z,9.94
2023-04-26T23:32:08.961Z,9.95
2023-04-26T23:34:41.378Z,9.89
2023-04-26T23:37:13.203Z,9.80
2023-04-26T23:39:45.250Z,9.77
2023-04-26T23:42:16.968Z,9.66
2023-04-26T23:44:48.822Z,9.60
2023-04-26T23:47:21.634Z,9.54
2023-04-26T23:49:53.709Z,9.45
2023-04-26T23:52:26.085Z,9.45
2023-04-26T23:54:57.988Z,9.48
2023-04-26T23:57:29.971Z,9.41
